Time,TemperatureF,DewpointF,PressureIn,WindDirection,WindDirectionDegrees,WindSpeedMPH,WindSpeedGustMPH,Humidity,HourlyPrecipIn,Conditions,Clouds,dailyrainin,SoftwareType,DateUTC
2013-11-26 00:12:00,28.7,25.0,30.35,NE,42,0.0,0.0,86,0.00,,,0.00,weatherlink.com 1.10,2013-11-26 07:12:00,
2013-11-26 00:27:00,28.6,25.0,30.35,NE,42,0.0,0.0,87,0.00,,,0.00,weatherlink.com 1.10,2013-11-26 07:27:00,
2013-11-26 00:42:00,28.3,25.0,30.35,NE,42,0.0,0.0,86,0.00,,,0.00,weatherlink.com 1.10,2013-11-26 07:42:00,
2013-11-26 00:57:00,28.0,25.0,30.35,NE,42,0.0,0.0,87,0.00,,,0.00,weatherlink.com 1.10,2013-11-26 07:57:00,
2013-11-26 01:12:00,27.8,24.0,30.36,NE,42,0.0,0.0,87,0.00,,,0.00,weatherlink.com 1.10,2013-11-26 08:12:00,
2013-11-26 01:27:00,27.6,24.0,30.36,NE,42,0.0,0.0,85,0.00,,,0.00,weatherlink.com 1.10,2013-11-26 08:27:00,
2013-11-26 01:42:00,27.2,24.0,30.36,NE,42,0.0,0.0,86,0.00,,,0.00,weatherlink.com 1.10,2013-11-26 08:42:00,
2013-11-26 01:57:00,26.8,24.0,30.37,NE,42,0.0,0.0,87,0.00,,,0.00,weatherlink.com 1.10,2013-11-26 08:57:00,
2013-11-26 02:27:00,26.6,24.0,30.36,NE,42,0.0,0.0,88,0.00,,,0.00,weatherlink.com 1.10,2013-11-26 09:27:00,
2013-11-26 02:42:00,26.3,23.0,30.36,NE,42,0.0,0.0,87,0.00,,,0.00,weatherlink.com 1.10,2013-11-26 09:42:00,
2013-11-26 02:57:00,26.0,23.0,30.36,NE,42,0.0,0.0,88,0.00,,,0.00,weatherlink.com 1.10,2013-11-26 09:57:00,
2013-11-26 03:12:00,25.7,23.0,30.37,NE,42,0.0,0.0,88,0.00,,,0.00,weatherlink.com 1.10,2013-11-26 10:12:00,
2013-11-26 03:27:00,25.6,23.0,30.37,NE,42,0.0,0.0,88,0.00,,,0.00,weatherlink.com 1.10,2013-11-26 10:27:00,
2013-11-26 03:42:00,25.3,22.0,30.38,NE,42,0.0,0.0,87,0.00,,,0.00,weatherlink.com 1.10,2013-11-26 10:42:00,
2013-11-26 03:57:00,25.7,23.0,30.38,NE,42,0.0,0.0,88,0.00,,,0.00,weatherlink.com 1.10,2013-11-26 10:57:00,
2013-11-26 04:12:00,25.5,22.0,30.38,NE,42,0.0,0.0,87,0.00,,,0.00,weatherlink.com 1.10,2013-11-26 11:12:00,
2013-11-26 04:27:00,25.3,22.0,30.38,NE,42,0.0,0.0,87,0.00,,,0.00,weatherlink.com 1.10,2013-11-26 11:27:00,
2013-11-26 04:42:00,25.2,22.0,30.39,NE,42,0.0,0.0,87,0.00,,,0.00,weatherlink.com 1.10,2013-11-26 11:42:00,
2013-11-26 04:58:00,24.9,22.0,30.39,NE,42,0.0,0.0,87,0.00,,,0.00,weatherlink.com 1.10,2013-11-26 11:58:00,
2013-11-26 05:13:00,25.1,22.0,30.39,NE,42,0.0,0.0,86,0.00,,,0.00,weatherlink.com 1.10,2013-11-26 12:13:00,
2013-11-26 05:28:00,24.8,21.0,30.39,NE,42,0.0,0.0,86,0.00,,,0.00,weatherlink.com 1.10,2013-11-26 12:28:00,
2013-11-26 05:43:00,24.5,21.0,30.40,NE,42,0.0,0.0,86,0.00,,,0.00,weatherlink.com 1.10,2013-11-26 12:43:00,
2013-11-26 05:58:00,24.1,21.0,30.41,NE,42,0.0,0.0,87,0.00,,,0.00,weatherlink.com 1.10,2013-11-26 12:58:00,
2013-11-26 06:13:00,24.0,21.0,30.40,NE,42,0.0,0.0,88,0.00,,,0.00,weatherlink.com 1.10,2013-11-26 13:13:00,
2013-11-26 06:28:00,24.0,21.0,30.41,NE,42,0.0,0.0,88,0.00,,,0.00,weatherlink.com 1.10,2013-11-26 13:28:00,
2013-11-26 06:43:00,23.9,21.0,30.41,NE,42,0.0,0.0,88,0.00,,,0.00,weatherlink.com 1.10,2013-11-26 13:43:00,
2013-11-26 06:58:00,24.2,21.0,30.42,NE,42,0.0,0.0,88,0.00,,,0.00,weatherlink.com 1.10,2013-11-26 13:58:00,
2013-11-26 07:13:00,24.4,21.0,30.43,NE,42,0.0,0.0,87,0.00,,,0.00,weatherlink.com 1.10,2013-11-26 14:13:00,
2013-11-26 07:28:00,24.9,22.0,30.43,NE,42,0.0,0.0,88,0.00,,,0.00,weatherlink.com 1.10,2013-11-26 14:28:00,
2013-11-26 07:43:00,26.0,23.0,30.44,NE,42,0.0,0.0,87,0.00,,,0.00,weatherlink.com 1.10,2013-11-26 14:43:00,
2013-11-26 07:58:00,27.9,23.0,30.45,NE,42,0.0,0.0,83,0.00,,,0.00,weatherlink.com 1.10,2013-11-26 14:58:00,
2013-11-26 08:13:00,29.6,24.0,30.45,NE,42,0.0,0.0,81,0.00,,,0.00,weatherlink.com 1.10,2013-11-26 15:13:00,
2013-11-26 08:28:00,31.2,25.0,30.46,NE,42,0.0,0.0,79,0.00,,,0.00,weatherlink.com 1.10,2013-11-26 15:28:00,
2013-11-26 08:43:00,32.4,26.0,30.46,North,360,0.0,4.0,78,0.01,,,0.01,weatherlink.com 1.10,2013-11-26 15:43:00,
2013-11-26 08:58:00,33.3,27.0,30.46,NNW,344,0.0,4.0,78,0.01,,,0.01,weatherlink.com 1.10,2013-11-26 15:58:00,
2013-11-26 09:13:00,34.1,27.0,30.46,North,5,0.0,6.0,76,0.01,,,0.01,weatherlink.com 1.10,2013-11-26 16:13:00,
2013-11-26 09:28:00,34.9,27.0,30.46,NNW,331,0.0,5.0,73,0.01,,,0.01,weatherlink.com 1.10,2013-11-26 16:28:00,
2013-11-26 09:43:00,35.7,27.0,30.46,NNW,338,0.0,4.0,72,0.00,,,0.01,weatherlink.com 1.10,2013-11-26 16:43:00,
2013-11-26 09:58:00,36.6,28.0,30.46,NNW,333,1.0,4.0,71,0.00,,,0.01,weatherlink.com 1.10,2013-11-26 16:58:00,
2013-11-26 10:13:00,37.1,28.0,30.46,NNW,330,1.0,5.0,69,0.00,,,0.01,weatherlink.com 1.10,2013-11-26 17:13:00,
2013-11-26 10:28:00,38.1,28.0,30.46,NNW,336,0.0,6.0,67,0.00,,,0.01,weatherlink.com 1.10,2013-11-26 17:28:00,
2013-11-26 10:43:00,38.9,29.0,30.45,NNW,344,2.0,4.0,67,0.00,,,0.01,weatherlink.com 1.10,2013-11-26 17:43:00,
2013-11-26 10:58:00,39.4,29.0,30.45,NNW,327,3.0,7.0,66,0.00,,,0.01,weatherlink.com 1.10,2013-11-26 17:58:00,
2013-11-26 11:13:00,40.3,28.0,30.44,North,349,2.0,6.0,63,0.00,,,0.01,weatherlink.com 1.10,2013-11-26 18:13:00,
2013-11-26 11:29:00,41.1,28.0,30.43,North,351,0.0,8.0,61,0.00,,,0.01,weatherlink.com 1.10,2013-11-26 18:29:00,
2013-11-26 11:44:00,41.6,28.0,30.42,NNW,336,4.0,6.0,60,0.00,,,0.01,weatherlink.com 1.10,2013-11-26 18:44:00,
2013-11-26 11:59:00,42.6,29.0,30.42,NNW,340,4.0,8.0,58,0.00,,,0.01,weatherlink.com 1.10,2013-11-26 18:59:00,
2013-11-26 12:14:00,43.2,29.0,30.41,NW,312,0.0,4.0,57,0.00,,,0.01,weatherlink.com 1.10,2013-11-26 19:14:00,
2013-11-26 12:29:00,43.7,29.0,30.41,NNW,345,0.0,7.0,56,0.00,,,0.01,weatherlink.com 1.10,2013-11-26 19:29:00,
2013-11-26 12:44:00,44.2,29.0,30.40,NW,321,0.0,3.0,55,0.00,,,0.01,weatherlink.com 1.10,2013-11-26 19:44:00,
2013-11-26 12:59:00,44.5,29.0,30.40,NW,313,2.0,5.0,54,0.00,,,0.01,weatherlink.com 1.10,2013-11-26 19:59:00,
2013-11-26 13:14:00,45.1,29.0,30.39,WNW,290,0.0,5.0,53,0.00,,,0.01,weatherlink.com 1.10,2013-11-26 20:14:00,
2013-11-26 13:29:00,46.0,29.0,30.39,WNW,296,0.0,5.0,51,0.00,,,0.01,weatherlink.com 1.10,2013-11-26 20:29:00,
2013-11-26 13:44:00,45.5,29.0,30.38,North,360,1.0,5.0,53,0.00,,,0.01,weatherlink.com 1.10,2013-11-26 20:44:00,
2013-11-26 13:59:00,46.9,29.0,30.37,West,281,0.0,5.0,51,0.00,,,0.01,weatherlink.com 1.10,2013-11-26 20:59:00,
2013-11-26 14:14:00,47.3,28.0,30.37,WSW,242,0.0,6.0,48,0.00,,,0.01,weatherlink.com 1.10,2013-11-26 21:14:00,
2013-11-26 14:29:00,48.3,29.0,30.37,SSW,207,1.0,4.0,47,0.00,,,0.01,weatherlink.com 1.10,2013-11-26 21:29:00,
2013-11-26 14:44:00,47.7,29.0,30.37,SSW,202,0.0,3.0,48,0.00,,,0.01,weatherlink.com 1.10,2013-11-26 21:44:00,
2013-11-26 14:59:00,47.9,29.0,30.37,SSW,201,0.0,3.0,48,0.00,,,0.01,weatherlink.com 1.10,2013-11-26 21:59:00,
2013-11-26 15:14:00,48.1,28.0,30.37,SSW,200,0.0,1.0,46,0.00,,,0.01,weatherlink.com 1.10,2013-11-26 22:14:00,
2013-11-26 15:29:00,48.2,29.0,30.37,SSW,200,2.0,2.0,47,0.00,,,0.01,weatherlink.com 1.10,2013-11-26 22:29:00,
2013-11-26 15:44:00,47.3,28.0,30.37,SSW,200,0.0,0.0,47,0.00,,,0.01,weatherlink.com 1.10,2013-11-26 22:44:00,
2013-11-26 15:59:00,47.2,28.0,30.37,SSW,200,0.0,0.0,47,0.00,,,0.01,weatherlink.com 1.10,2013-11-26 22:59:00,
2013-11-26 16:14:00,46.6,28.0,30.37,SSW,200,0.0,2.0,49,0.00,,,0.01,weatherlink.com 1.10,2013-11-26 23:14:00,
2013-11-26 16:29:00,46.1,28.0,30.37,SSW,200,0.0,0.0,49,0.00,,,0.01,weatherlink.com 1.10,2013-11-26 23:29:00,
2013-11-26 16:44:00,46.0,28.0,30.37,SSW,200,0.0,0.0,50,0.00,,,0.01,weatherlink.com 1.10,2013-11-26 23:44:00,
2013-11-26 16:59:00,44.6,28.0,30.37,SSW,200,0.0,0.0,52,0.00,,,0.01,weatherlink.com 1.10,2013-11-26 23:59:00,
2013-11-26 17:14:00,43.3,28.0,30.37,SSW,200,0.0,0.0,56,0.00,,,0.01,weatherlink.com 1.10,2013-11-27 00:14:00,
2013-11-26 17:29:00,41.9,28.0,30.37,SSW,200,0.0,0.0,59,0.00,,,0.01,weatherlink.com 1.10,2013-11-27 00:29:00,
2013-11-26 17:44:00,40.9,29.0,30.38,SSW,200,0.0,0.0,62,0.00,,,0.01,weatherlink.com 1.10,2013-11-27 00:44:00,
2013-11-26 17:59:00,39.6,28.0,30.38,SSW,200,0.0,0.0,64,0.00,,,0.01,weatherlink.com 1.10,2013-11-27 00:59:00,
2013-11-26 18:14:00,38.8,28.0,30.39,SSW,200,0.0,0.0,66,0.00,,,0.01,weatherlink.com 1.10,2013-11-27 01:14:00,
2013-11-26 18:29:00,38.1,28.0,30.39,SSW,200,0.0,0.0,67,0.00,,,0.01,weatherlink.com 1.10,2013-11-27 01:29:00,
2013-11-26 18:44:00,37.8,28.0,30.39,SSW,200,0.0,0.0,68,0.00,,,0.01,weatherlink.com 1.10,2013-11-27 01:44:00,
2013-11-26 18:59:00,38.4,28.0,30.39,SSE,155,0.0,0.0,66,0.00,,,0.01,weatherlink.com 1.10,2013-11-27 01:59:00,
2013-11-26 19:14:00,38.1,28.0,30.39,SSE,155,0.0,0.0,67,0.00,,,0.01,weatherlink.com 1.10,2013-11-27 02:14:00,
2013-11-26 19:29:00,37.7,28.0,30.39,SE,134,0.0,2.0,67,0.00,,,0.01,weatherlink.com 1.10,2013-11-27 02:29:00,
2013-11-26 19:44:00,37.5,27.0,30.39,SE,134,0.0,1.0,67,0.00,,,0.01,weatherlink.com 1.10,2013-11-27 02:44:00,
2013-11-26 19:59:00,37.3,27.0,30.39,ESE,114,0.0,3.0,67,0.00,,,0.01,weatherlink.com 1.10,2013-11-27 02:59:00,
2013-11-26 20:14:00,36.8,27.0,30.39,ESE,114,0.0,1.0,68,0.00,,,0.01,weatherlink.com 1.10,2013-11-27 03:14:00,
2013-11-26 20:29:00,36.3,27.0,30.40,ESE,114,0.0,2.0,69,0.00,,,0.01,weatherlink.com 1.10,2013-11-27 03:29:00,
2013-11-26 20:44:00,35.9,27.0,30.40,ESE,114,0.0,3.0,70,0.00,,,0.01,weatherlink.com 1.10,2013-11-27 03:44:00,
2013-11-26 20:59:00,35.3,27.0,30.40,ENE,69,1.0,5.0,72,0.00,,,0.01,weatherlink.com 1.10,2013-11-27 03:59:00,
2013-11-26 21:14:00,35.4,27.0,30.40,ENE,69,0.0,4.0,72,0.00,,,0.01,weatherlink.com 1.10,2013-11-27 04:14:00,
2013-11-26 21:29:00,35.5,27.0,30.40,ENE,69,0.0,4.0,71,0.00,,,0.01,weatherlink.com 1.10,2013-11-27 04:29:00,
2013-11-26 21:44:00,35.0,26.0,30.40,ENE,69,0.0,0.0,71,0.00,,,0.01,weatherlink.com 1.10,2013-11-27 04:44:00,
2013-11-26 21:59:00,34.7,26.0,30.40,ENE,69,0.0,2.0,70,0.00,,,0.01,weatherlink.com 1.10,2013-11-27 04:59:00,
2013-11-26 22:14:00,35.1,25.0,30.40,ENE,69,0.0,0.0,68,0.00,,,0.01,weatherlink.com 1.10,2013-11-27 05:14:00,
2013-11-26 22:29:00,34.7,25.0,30.40,ENE,69,0.0,3.0,67,0.00,,,0.01,weatherlink.com 1.10,2013-11-27 05:29:00,
2013-11-26 22:44:00,35.2,25.0,30.41,ENE,69,0.0,1.0,66,0.00,,,0.01,weatherlink.com 1.10,2013-11-27 05:44:00,
2013-11-26 22:59:00,34.4,24.0,30.40,ENE,69,0.0,0.0,67,0.00,,,0.01,weatherlink.com 1.10,2013-11-27 05:59:00,
2013-11-26 23:14:00,33.4,25.0,30.41,ENE,69,0.0,0.0,70,0.00,,,0.01,weatherlink.com 1.10,2013-11-27 06:14:00,
2013-11-26 23:29:00,32.4,24.0,30.41,ENE,69,0.0,4.0,72,0.00,,,0.01,weatherlink.com 1.10,2013-11-27 06:29:00,
2013-11-26 23:44:00,31.9,25.0,30.41,ENE,69,0.0,0.0,74,0.00,,,0.01,weatherlink.com 1.10,2013-11-27 06:44:00,
2013-11-26 23:59:00,31.1,25.0,30.41,ENE,69,0.0,0.0,77,0.00,,,0.01,weatherlink.com 1.10,2013-11-27 06:59:00,